createdAt,value
2023-01-17T00:01:33.242Z,4.10
2023-01-17T00:04:29.233Z,4.20
2023-01-17T00:07:14.765Z,4.20
2023-01-17T00:09:53.762Z,4.10
2023-01-17T00:12:21.310Z,4.10
2023-01-17T00:14:48.533Z,3.80
2023-01-17T00:17:15.479Z,3.90
2023-01-17T00:20:00.556Z,3.80
2023-01-17T00:22:48.223Z,3.80
2023-01-17T00:25:56.952Z,3.70
2023-01-17T00:28:24.515Z,3.70
2023-01-17T00:30:51.196Z,3.70
2023-01-17T00:33:18.349Z,3.70
2023-01-17T00:35:44.986Z,3.80
2023-01-17T00:38:13.449Z,3.80
2023-01-17T00:40:41.975Z,3.80
2023-01-17T00:43:28.769Z,3.90
2023-01-17T00:46:14.187Z,3.90
2023-01-17T00:49:00.133Z,3.90
2023-01-17T00:51:46.737Z,4.00
2023-01-17T00:54:32.786Z,4.00
2023-01-17T00:57:18.238Z,4.10
2023-01-17T01:00:03.453Z,4.10
2023-01-17T01:02:48.977Z,4.10
2023-01-17T01:05:35.192Z,4.10
2023-01-17T01:08:20.909Z,4.20
2023-01-17T01:11:06.841Z,4.10
2023-01-17T01:13:52.793Z,4.20
2023-01-17T01:16:38.551Z,4.10
2023-01-17T01:19:24.589Z,4.10
2023-01-17T01:22:10.003Z,4.10
2023-01-17T01:24:55.519Z,4.10
2023-01-17T01:27:40.963Z,4.10
2023-01-17T01:30:27.033Z,4.00
2023-01-17T01:33:12.579Z,4.00
2023-01-17T01:35:39.273Z,4.10
2023-01-17T01:38:06.163Z,4.10
2023-01-17T01:40:32.848Z,4.10
2023-01-17T01:43:03.019Z,4.10
2023-01-17T01:45:32.382Z,4.10
2023-01-17T01:48:31.551Z,4.10
2023-01-17T01:50:58.685Z,4.00
2023-01-17T01:53:26.280Z,4.10
2023-01-17T01:55:53.300Z,4.10
2023-01-17T01:58:24.884Z,4.00
2023-01-17T02:00:52.010Z,3.90
2023-01-17T02:03:26.648Z,3.90
2023-01-17T02:05:53.482Z,3.80
2023-01-17T02:08:22.867Z,3.90
2023-01-17T02:10:50.621Z,3.90
2023-01-17T02:13:20.670Z,3.90
2023-01-17T02:16:13.046Z,3.90
2023-01-17T02:18:58.237Z,3.90
2023-01-17T02:21:47.763Z,3.90
2023-01-17T02:24:39.348Z,3.90
2023-01-17T02:27:42.613Z,3.90
2023-01-17T02:30:24.299Z,4.00
2023-01-17T02:33:14.341Z,4.00
2023-01-17T02:35:48.146Z,4.00
2023-01-17T02:38:17.701Z,4.10
2023-01-17T02:40:57.793Z,4.10
2023-01-17T02:43:25.926Z,4.00
2023-01-17T02:45:52.656Z,4.00
2023-01-17T02:48:24.303Z,4.10
2023-01-17T02:51:25.362Z,4.10
2023-01-17T02:54:09.637Z,4.10
2023-01-17T02:56:55.095Z,4.00
2023-01-17T02:59:40.598Z,3.90
2023-01-17T03:02:27.483Z,3.90
2023-01-17T03:04:59.766Z,3.90
2023-01-17T03:07:28.095Z,3.80
2023-01-17T03:10:01.882Z,3.80
2023-01-17T03:12:30.803Z,3.70
2023-01-17T03:14:57.824Z,3.70
2023-01-17T03:17:28.627Z,3.70
2023-01-17T03:19:55.326Z,3.80
2023-01-17T03:22:21.985Z,3.80
2023-01-17T03:24:48.652Z,3.80
2023-01-17T03:27:15.470Z,3.80
2023-01-17T03:29:42.225Z,3.80
2023-01-17T03:32:08.909Z,4.10
2023-01-17T03:34:35.570Z,3.70
2023-01-17T03:37:02.244Z,3.70
2023-01-17T03:39:29.017Z,3.70
2023-01-17T03:41:55.660Z,3.70
2023-01-17T03:44:22.587Z,3.70
2023-01-17T03:46:49.330Z,3.60
2023-01-17T03:49:16.682Z,3.60
2023-01-17T03:51:43.420Z,3.60
2023-01-17T03:54:10.155Z,3.70
2023-01-17T03:56:36.790Z,3.70
2023-01-17T03:59:03.451Z,3.70
2023-01-17T04:01:30.240Z,3.70
2023-01-17T04:03:56.965Z,3.70
2023-01-17T04:06:23.665Z,3.70
2023-01-17T04:08:50.432Z,3.70
2023-01-17T04:11:17.156Z,3.70
2023-01-17T04:13:43.848Z,3.70
2023-01-17T04:16:16.993Z,3.60
2023-01-17T04:18:44.635Z,3.60
2023-01-17T04:21:11.491Z,3.50
2023-01-17T04:23:38.499Z,3.50
2023-01-17T04:26:05.394Z,3.50
2023-01-17T04:28:32.239Z,1.30
2023-01-17T04:31:00.086Z,3.50
2023-01-17T04:33:26.899Z,3.40
2023-01-17T04:35:54.332Z,3.40
2023-01-17T04:38:21.621Z,3.40
2023-01-17T04:40:48.967Z,3.40
2023-01-17T04:43:16.540Z,3.40
2023-01-17T04:45:43.569Z,3.40
2023-01-17T04:48:12.644Z,3.40
2023-01-17T04:50:39.707Z,3.40
2023-01-17T04:53:06.520Z,3.30
2023-01-17T04:55:33.235Z,3.40
2023-01-17T04:57:59.906Z,3.40
2023-01-17T05:00:26.644Z,3.40
2023-01-17T05:02:53.531Z,3.40
2023-01-17T05:05:20.239Z,3.50
2023-01-17T05:07:54.531Z,3.40
2023-01-17T05:10:21.245Z,3.40
2023-01-17T05:12:58.475Z,3.30
2023-01-17T05:15:26.249Z,3.30
2023-01-17T05:17:53.758Z,3.40
2023-01-17T05:20:22.329Z,3.40
2023-01-17T05:22:55.885Z,3.40
2023-01-17T05:25:24.313Z,3.40
2023-01-17T05:27:51.383Z,3.30
2023-01-17T05:30:18.826Z,3.40
2023-01-17T05:32:57.972Z,3.50
2023-01-17T05:35:32.536Z,3.40
2023-01-17T05:37:59.282Z,3.40
2023-01-17T05:40:28.505Z,3.50
2023-01-17T05:42:58.055Z,3.40
2023-01-17T05:45:26.499Z,3.50
2023-01-17T05:47:55.260Z,3.40
2023-01-17T05:50:24.628Z,3.40
2023-01-17T05:52:53.935Z,3.40
2023-01-17T05:55:21.473Z,3.40
2023-01-17T05:57:48.535Z,3.40
2023-01-17T06:00:16.378Z,3.40
2023-01-17T06:02:44.156Z,3.30
2023-01-17T06:05:11.231Z,3.30
2023-01-17T06:07:38.004Z,3.30
2023-01-17T06:10:05.547Z,3.20
2023-01-17T06:12:32.348Z,3.20
2023-01-17T06:14:59.086Z,3.10
2023-01-17T06:17:25.893Z,3.00
2023-01-17T06:19:52.574Z,2.90
2023-01-17T06:22:19.210Z,3.10
2023-01-17T06:24:46.121Z,2.80
2023-01-17T06:27:12.761Z,2.70
2023-01-17T06:29:39.425Z,2.60
2023-01-17T06:37:04.299Z,2.50
2023-01-17T06:39:31.061Z,2.40
2023-01-17T06:41:58.152Z,2.40
2023-01-17T06:44:26.243Z,2.40
2023-01-17T06:46:53.579Z,2.40
2023-01-17T06:49:20.438Z,2.30
2023-01-17T06:51:47.151Z,2.40
2023-01-17T06:54:13.953Z,2.40
2023-01-17T06:56:40.611Z,2.40
2023-01-17T06:59:07.391Z,2.40
2023-01-17T07:01:34.182Z,2.30
2023-01-17T07:04:00.989Z,2.30
2023-01-17T07:06:28.811Z,2.40
2023-01-17T07:08:59.058Z,2.30
2023-01-17T07:11:27.318Z,2.30
2023-01-17T07:13:54.149Z,2.20
2023-01-17T07:16:21.048Z,2.20
2023-01-17T07:18:47.855Z,2.20
2023-01-17T07:21:15.613Z,2.20
2023-01-17T07:23:42.360Z,2.20
2023-01-17T07:26:09.111Z,2.10
2023-01-17T07:28:35.898Z,2.10
2023-01-17T07:31:08.971Z,2.20
2023-01-17T07:33:35.794Z,2.20
2023-01-17T07:36:09.667Z,2.20
2023-01-17T07:38:36.517Z,2.30
2023-01-17T07:41:03.517Z,2.30
2023-01-17T07:43:30.207Z,2.40
2023-01-17T07:45:57.480Z,2.40
2023-01-17T07:48:24.995Z,2.40
2023-01-17T07:50:53.182Z,2.40
2023-01-17T07:53:20.292Z,2.40
2023-01-17T07:55:47.050Z,2.40
2023-01-17T07:58:15.351Z,2.30
2023-01-17T08:00:44.331Z,2.30
2023-01-17T08:03:14.097Z,2.30
2023-01-17T08:05:42.291Z,2.20
2023-01-17T08:08:09.176Z,2.20
2023-01-17T08:10:36.446Z,2.20
2023-01-17T08:13:03.613Z,2.10
2023-01-17T08:15:30.375Z,2.20
2023-01-17T08:17:58.562Z,2.10
2023-01-17T08:20:27.797Z,2.20
2023-01-17T08:22:57.870Z,2.20
2023-01-17T08:25:25.517Z,2.30
2023-01-17T08:27:56.883Z,2.40
2023-01-17T08:30:24.066Z,2.40
2023-01-17T08:32:50.823Z,2.40
2023-01-17T08:35:17.706Z,2.30
2023-01-17T08:37:44.494Z,2.50
2023-01-17T08:40:11.950Z,2.60
2023-01-17T08:42:41.651Z,2.60
2023-01-17T08:45:09.950Z,2.70
2023-01-17T08:47:37.142Z,2.80
2023-01-17T08:50:06.628Z,2.90
2023-01-17T08:52:33.907Z,3.00
2023-01-17T08:55:00.649Z,3.20
2023-01-17T08:57:27.407Z,3.20
2023-01-17T08:59:54.145Z,3.30
2023-01-17T09:02:21.160Z,3.30
2023-01-17T09:04:49.316Z,3.30
2023-01-17T09:07:17.958Z,3.50
2023-01-17T09:09:44.943Z,3.40
2023-01-17T09:12:11.606Z,3.50
2023-01-17T09:14:38.482Z,3.60
2023-01-17T09:17:08.493Z,3.70
2023-01-17T09:19:35.465Z,3.80
2023-01-17T09:22:04.512Z,3.90
2023-01-17T09:24:32.748Z,3.90
2023-01-17T09:27:00.208Z,4.20
2023-01-17T09:29:27.183Z,4.40
2023-01-17T09:31:54.010Z,4.60
2023-01-17T09:34:21.205Z,4.80
2023-01-17T09:36:47.928Z,4.90
2023-01-17T09:39:15.284Z,5.00
2023-01-17T09:41:41.949Z,5.20
2023-01-17T09:44:27.005Z,5.10
2023-01-17T09:47:04.862Z,5.00
2023-01-17T09:49:44.524Z,5.00
2023-01-17T09:52:17.567Z,5.00
2023-01-17T09:54:47.538Z,5.40
2023-01-17T09:58:08.890Z,5.20
2023-01-17T10:00:59.004Z,5.40
2023-01-17T10:03:56.841Z,6.10
2023-01-17T10:06:44.576Z,5.60
2023-01-17T10:09:29.140Z,5.70
2023-01-17T10:12:25.098Z,5.90
2023-01-17T10:15:10.452Z,5.70
2023-01-17T10:18:02.451Z,5.70
2023-01-17T10:20:44.499Z,6.00
2023-01-17T10:23:34.600Z,6.00
2023-01-17T10:26:07.294Z,6.20
2023-01-17T10:28:46.950Z,6.20
2023-01-17T10:31:43.253Z,6.20
2023-01-17T10:34:17.105Z,6.10
2023-01-17T10:36:49.338Z,6.30
2023-01-17T10:39:26.546Z,6.40
2023-01-17T10:41:59.456Z,6.30
2023-01-17T10:59:49.140Z,6.30
2023-01-17T11:15:02.561Z,6.00
2023-01-17T11:20:23.837Z,5.90
2023-01-17T11:26:00.313Z,6.00
2023-01-17T11:31:00.355Z,6.10
2023-01-17T11:36:32.260Z,6.20
2023-01-17T11:41:28.241Z,5.80
2023-01-17T11:46:29.544Z,5.70
2023-01-17T11:54:02.813Z,6.90
2023-01-17T11:59:15.160Z,5.70
2023-01-17T12:07:28.161Z,6.20
2023-01-17T12:18:09.064Z,6.40
2023-01-17T12:23:45.038Z,6.60
2023-01-17T12:26:33.801Z,6.60
2023-01-17T12:57:25.384Z,7.40
2023-01-17T13:05:37.207Z,7.60
2023-01-17T13:18:30.131Z,7.50
2023-01-17T13:23:49.760Z,7.00
2023-01-17T13:29:19.504Z,6.80
2023-01-17T13:42:23.090Z,6.40
2023-01-17T13:44:50.545Z,6.70
2023-01-17T13:47:17.177Z,6.70
2023-01-17T13:49:44.050Z,6.80
2023-01-17T14:02:33.742Z,6.60
2023-01-17T14:10:27.508Z,6.80
2023-01-17T14:12:55.265Z,6.80
2023-01-17T14:38:05.635Z,6.70
2023-01-17T14:48:04.591Z,6.00
2023-01-17T14:53:18.721Z,5.70
2023-01-17T14:55:50.013Z,5.60
2023-01-17T15:08:24.900Z,5.30
2023-01-17T15:13:44.191Z,5.10
2023-01-17T15:16:36.266Z,5.00
2023-01-17T15:24:12.967Z,4.70
2023-01-17T15:29:19.930Z,4.60
2023-01-17T15:31:50.392Z,4.50
2023-01-17T15:39:30.343Z,4.30
2023-01-17T15:58:02.341Z,3.90
2023-01-17T16:08:39.369Z,3.30
2023-01-17T16:21:19.198Z,3.10
2023-01-17T16:26:13.273Z,3.00
2023-01-17T16:31:07.199Z,3.60
2023-01-17T16:50:50.739Z,1.50
2023-01-17T16:53:22.572Z,2.70
2023-01-17T16:55:52.915Z,2.90
2023-01-17T17:18:16.528Z,2.50
2023-01-17T17:35:34.751Z,2.20
2023-01-17T18:07:35.032Z,2.70
2023-01-17T18:32:08.645Z,1.70
2023-01-17T18:42:01.115Z,2.10
2023-01-17T19:04:14.232Z,1.30
2023-01-17T19:06:43.357Z,1.20
2023-01-17T19:09:12.854Z,1.20
2023-01-17T19:36:35.659Z,0.90
2023-01-17T19:39:05.860Z,1.00
2023-01-17T19:56:23.938Z,0.70
2023-01-17T20:08:45.221Z,0.70
2023-01-17T20:13:45.277Z,0.70
2023-01-17T20:36:11.044Z,0.50
2023-01-17T20:46:12.497Z,0.40
2023-01-17T20:56:14.098Z,0.40
2023-01-17T21:06:09.763Z,0.30
2023-01-17T21:11:06.151Z,0.00
2023-01-17T21:13:33.032Z,1.10
2023-01-17T21:18:28.344Z,0.20
2023-01-17T21:20:55.221Z,0.30
2023-01-17T21:23:26.255Z,0.40
2023-01-17T21:33:19.283Z,0.20
2023-01-17T21:35:46.737Z,-0.10
2023-01-17T21:45:40.059Z,0.10
2023-01-17T21:48:12.082Z,0.10
2023-01-17T22:04:02.879Z,0.10
2023-01-17T22:16:23.460Z,0.00
2023-01-17T22:18:50.823Z,0.20
2023-01-17T22:23:53.448Z,0.00
2023-01-17T22:28:48.613Z,-0.40
2023-01-17T22:31:16.664Z,-0.10
2023-01-17T22:33:45.746Z,-0.10
2023-01-17T22:48:34.921Z,-0.20
2023-01-17T22:56:07.080Z,-0.20
2023-01-17T23:01:10.932Z,-0.20
2023-01-17T23:03:38.533Z,-0.20
2023-01-17T23:11:41.465Z,-0.30
2023-01-17T23:16:55.607Z,-0.30
2023-01-17T23:27:53.451Z,-0.40
2023-01-17T23:32:57.653Z,-0.40
2023-01-17T23:38:12.787Z,-0.50
2023-01-17T23:40:40.514Z,-0.50
